Time;durP1;ratioP1;P1;durP2;ratioP2;P2;SDS_P1;SDS_P2;PMS_P1;PMS_P2;Temp;Humidity;BMP_temperature;BMP_pressure;BME280_temperature;BME280_humidity;BME280_pressure;Samples;Min_cycle;Max_cycle;Signal;HPM_P1;HPM_P2
2022/01/20 00:01:35;;;;;;;;;;;22.20;29.60;;;;;;5088370;28;20377;-63
2022/01/20 00:04:01;;;;;;;;;;;22.20;29.60;;;;;;5088697;28;19920;-63
2022/01/20 00:09:42;;;;;;;;;;;22.20;29.60;;;;;;5088148;28;19955;-63
2022/01/20 00:23:14;;;;;;;;;;;22.20;29.60;;;;;;5087560;28;20421;-63
2022/01/20 00:23:29;;;;;;;;;;;22.20;29.60;;;;;;5088067;28;19967;-63
2022/01/20 00:26:08;;;;;;;;;;;22.20;29.60;;;;;;5088000;28;19931;-63
2022/01/20 00:28:41;;;;;;;;;;;22.20;29.50;;;;;;5087837;28;19920;-63
2022/01/20 00:34:11;;;;;;;;;;;22.20;29.50;;;;;;5100755;28;20376;-63
2022/01/20 00:39:26;;;;;;;;;;;22.20;29.50;;;;;;5087809;28;20010;-62
2022/01/20 00:41:53;;;;;;;;;;;22.20;29.50;;;;;;5087672;28;19963;-63
2022/01/20 00:44:21;;;;;;;;;;;22.20;29.50;;;;;;5087454;28;19936;-63
2022/01/20 00:46:48;;;;;;;;;;;22.20;29.50;;;;;;5069939;28;19998;-63
2022/01/20 00:49:15;;;;;;;;;;;22.20;29.50;;;;;;5087849;28;20026;-64
2022/01/20 00:51:42;;;;;;;;;;;22.20;29.50;;;;;;5087277;28;19920;-63
2022/01/20 00:54:16;;;;;;;;;;;22.20;29.40;;;;;;5087376;28;20381;-64
2022/01/20 00:56:43;;;;;;;;;;;22.20;29.50;;;;;;5087479;28;19960;-63
2022/01/20 00:59:10;;;;;;;;;;;22.20;29.50;;;;;;5086812;28;20430;-63
2022/01/20 01:01:37;;;;;;;;;;;22.20;29.50;;;;;;5087166;28;19919;-63
2022/01/20 01:04:04;;;;;;;;;;;22.20;29.50;;;;;;5087038;28;19920;-63
2022/01/20 01:09:18;;;;;;;;;;;22.20;29.50;;;;;;5086356;28;20015;-64
2022/01/20 01:11:47;;;;;;;;;;;22.20;29.50;;;;;;5087301;28;19963;-63
2022/01/20 01:14:16;;;;;;;;;;;22.20;29.50;;;;;;5087329;28;19920;-62
2022/01/20 01:22:21;;;;;;;;;;;22.20;29.50;;;;;;5086081;28;20014;-62
2022/01/20 01:24:51;;;;;;;;;;;22.10;29.40;;;;;;5086361;28;20400;-62
2022/01/20 01:27:18;;;;;;;;;;;22.10;29.40;;;;;;5087023;28;20014;-62
2022/01/20 01:32:44;;;;;;;;;;;22.10;29.40;;;;;;5086003;28;19955;-62
2022/01/20 01:35:13;;;;;;;;;;;22.10;29.50;;;;;;5086509;28;19920;-62
2022/01/20 01:40:29;;;;;;;;;;;22.10;29.40;;;;;;5099699;28;19924;-63
2022/01/20 01:42:57;;;;;;;;;;;22.10;29.40;;;;;;5068715;28;19928;-62
2022/01/20 01:45:25;;;;;;;;;;;22.10;29.40;;;;;;5086330;28;19924;-62
2022/01/20 01:47:52;;;;;;;;;;;22.10;29.40;;;;;;5086491;28;20284;-62
2022/01/20 01:50:20;;;;;;;;;;;22.10;29.40;;;;;;5086164;28;20168;-62
2022/01/20 01:52:47;;;;;;;;;;;22.10;29.40;;;;;;5086572;28;19955;-63
2022/01/20 01:55:14;;;;;;;;;;;22.10;29.40;;;;;;5086573;28;20014;-62
2022/01/20 01:57:41;;;;;;;;;;;22.10;29.40;;;;;;5101832;28;19973;-63
2022/01/20 02:00:09;;;;;;;;;;;22.10;29.40;;;;;;5086319;28;19927;-62
2022/01/20 02:02:36;;;;;;;;;;;22.10;29.40;;;;;;5086683;28;20081;-62
2022/01/20 02:05:05;;;;;;;;;;;22.10;29.40;;;;;;5101836;28;19920;-62
2022/01/20 02:18:45;;;;;;;;;;;22.10;29.50;;;;;;5086395;28;19928;-62
2022/01/20 02:21:13;;;;;;;;;;;22.10;29.40;;;;;;5101268;28;19928;-62
2022/01/20 02:23:41;;;;;;;;;;;22.10;29.40;;;;;;5085670;28;19928;-63
2022/01/20 02:26:08;;;;;;;;;;;22.10;29.40;;;;;;5086197;28;20015;-62
2022/01/20 02:28:35;;;;;;;;;;;22.10;29.40;;;;;;5086145;28;19959;-63
2022/01/20 02:31:02;;;;;;;;;;;22.10;29.40;;;;;;5085848;28;20029;-62
2022/01/20 02:33:31;;;;;;;;;;;22.10;29.40;;;;;;5085654;28;19924;-62
2022/01/20 02:36:01;;;;;;;;;;;22.10;29.30;;;;;;5086144;28;20364;-62
2022/01/20 02:38:46;;;;;;;;;;;22.10;29.30;;;;;;5086147;28;19920;-62
2022/01/20 02:46:47;;;;;;;;;;;22.10;29.30;;;;;;5074593;28;19920;-62
2022/01/20 02:49:15;;;;;;;;;;;22.10;29.30;;;;;;5089454;28;19973;-62
2022/01/20 02:51:46;;;;;;;;;;;22.00;29.20;;;;;;5089805;28;19920;-62
2022/01/20 02:54:13;;;;;;;;;;;22.10;29.30;;;;;;5089890;28;20443;-62
2022/01/20 02:56:40;;;;;;;;;;;22.00;29.20;;;;;;5089451;28;20275;-62
2022/01/20 02:59:07;;;;;;;;;;;22.00;29.30;;;;;;5089700;28;20507;-63
2022/01/20 03:01:34;;;;;;;;;;;22.00;29.30;;;;;;5089139;28;19965;-66
2022/01/20 03:04:03;;;;;;;;;;;22.00;29.30;;;;;;5089725;28;19920;-62
2022/01/20 03:06:30;;;;;;;;;;;22.00;29.30;;;;;;5089321;28;19967;-62
2022/01/20 03:08:56;;;;;;;;;;;22.00;29.30;;;;;;5089400;28;19956;-62
2022/01/20 03:11:23;;;;;;;;;;;22.00;29.30;;;;;;5071397;28;19977;-62
2022/01/20 03:13:51;;;;;;;;;;;22.00;29.30;;;;;;5089104;28;19924;-62
2022/01/20 03:16:17;;;;;;;;;;;22.00;29.30;;;;;;5089186;28;20395;-62
2022/01/20 03:18:44;;;;;;;;;;;22.00;29.30;;;;;;5089272;28;19926;-62
2022/01/20 03:21:13;;;;;;;;;;;22.00;29.30;;;;;;5089126;28;19946;-63
2022/01/20 03:23:40;;;;;;;;;;;22.00;29.30;;;;;;5089434;28;19924;-63
2022/01/20 03:26:07;;;;;;;;;;;22.00;29.30;;;;;;5088880;28;19920;-62
2022/01/20 03:28:33;;;;;;;;;;;22.00;29.30;;;;;;5088949;28;20400;-62
2022/01/20 03:31:00;;;;;;;;;;;22.00;29.30;;;;;;5089096;28;19985;-62
2022/01/20 03:33:27;;;;;;;;;;;22.00;29.30;;;;;;5089219;28;19926;-63
2022/01/20 03:35:54;;;;;;;;;;;22.00;29.30;;;;;;5089157;28;20038;-62
2022/01/20 03:38:21;;;;;;;;;;;22.00;29.30;;;;;;5088845;28;20014;-62
2022/01/20 03:40:50;;;;;;;;;;;22.00;29.30;;;;;;5089112;28;20471;-62
2022/01/20 03:43:17;;;;;;;;;;;21.90;29.30;;;;;;5088553;28;20160;-62
2022/01/20 03:45:49;;;;;;;;;;;21.90;29.30;;;;;;5088929;28;20354;-62
2022/01/20 03:48:17;;;;;;;;;;;21.90;29.30;;;;;;5088981;28;20339;-62
2022/01/20 03:51:00;;;;;;;;;;;22.00;29.30;;;;;;5088361;28;19919;-63
2022/01/20 03:53:27;;;;;;;;;;;21.90;29.30;;;;;;5088723;28;19955;-62
2022/01/20 03:55:55;;;;;;;;;;;21.90;29.30;;;;;;5087700;28;19958;-62
2022/01/20 03:58:22;;;;;;;;;;;21.90;29.30;;;;;;5088566;28;19973;-62
2022/01/20 04:00:49;;;;;;;;;;;21.90;29.30;;;;;;5088282;28;19997;-62
2022/01/20 04:03:17;;;;;;;;;;;21.90;29.30;;;;;;5070508;28;19921;-62
2022/01/20 04:05:56;;;;;;;;;;;21.90;29.30;;;;;;5088363;28;20027;-64
2022/01/20 04:08:24;;;;;;;;;;;21.90;29.30;;;;;;5088206;28;20384;-62
2022/01/20 04:10:52;;;;;;;;;;;21.90;29.30;;;;;;5088570;28;19920;-62
2022/01/20 04:13:19;;;;;;;;;;;21.90;29.30;;;;;;5088622;28;20330;-62
2022/01/20 04:15:48;;;;;;;;;;;21.90;29.30;;;;;;5088234;28;20346;-62
2022/01/20 04:18:21;;;;;;;;;;;21.90;29.30;;;;;;5087855;28;20369;-62
2022/01/20 04:20:48;;;;;;;;;;;21.90;29.30;;;;;;5088358;28;20224;-63
2022/01/20 04:23:15;;;;;;;;;;;21.90;29.20;;;;;;5088308;28;20031;-62
2022/01/20 04:25:42;;;;;;;;;;;21.90;29.20;;;;;;5087978;28;20395;-62
2022/01/20 04:28:09;;;;;;;;;;;21.90;29.20;;;;;;5088497;28;20014;-62
2022/01/20 04:30:36;;;;;;;;;;;21.90;29.20;;;;;;5087410;28;20019;-62
2022/01/20 04:33:03;;;;;;;;;;;21.90;29.20;;;;;;5087749;28;20281;-62
2022/01/20 04:35:31;;;;;;;;;;;21.90;29.20;;;;;;5087911;28;19923;-62
2022/01/20 04:37:59;;;;;;;;;;;21.90;29.20;;;;;;5087465;28;19923;-62
2022/01/20 04:40:26;;;;;;;;;;;21.90;29.20;;;;;;5088043;28;19924;-62
2022/01/20 04:42:53;;;;;;;;;;;21.90;29.20;;;;;;5087575;28;19919;-63
2022/01/20 04:45:31;;;;;;;;;;;21.90;29.20;;;;;;5087430;28;19967;-62
2022/01/20 04:59:07;;;;;;;;;;;21.90;29.20;;;;;;5087167;28;19957;-63
2022/01/20 05:01:34;;;;;;;;;;;21.80;29.10;;;;;;5086591;28;20368;-62
2022/01/20 05:04:03;;;;;;;;;;;21.90;29.20;;;;;;5086719;28;20014;-62
2022/01/20 05:06:30;;;;;;;;;;;21.90;29.20;;;;;;5087262;28;19924;-63
2022/01/20 05:08:57;;;;;;;;;;;21.80;29.10;;;;;;5086785;28;19963;-63
2022/01/20 05:11:24;;;;;;;;;;;21.80;29.10;;;;;;5087581;28;20035;-62
2022/01/20 05:13:51;;;;;;;;;;;21.80;29.10;;;;;;5086482;28;20519;-62
2022/01/20 05:16:18;;;;;;;;;;;21.80;29.20;;;;;;5086960;28;19973;-62
2022/01/20 05:18:45;;;;;;;;;;;21.80;29.20;;;;;;5073251;28;20197;-62
2022/01/20 05:21:12;;;;;;;;;;;21.80;29.20;;;;;;5087243;28;19996;-62
2022/01/20 05:23:39;;;;;;;;;;;21.80;29.20;;;;;;5086149;28;19997;-62
2022/01/20 05:26:06;;;;;;;;;;;21.80;29.20;;;;;;5087058;28;19920;-63
2022/01/20 05:28:33;;;;;;;;;;;21.80;29.20;;;;;;5086603;28;20415;-62
2022/01/20 05:31:00;;;;;;;;;;;21.80;29.20;;;;;;5068793;28;19928;-62
2022/01/20 05:33:27;;;;;;;;;;;21.80;29.20;;;;;;5084831;28;20594;-63
2022/01/20 05:35:54;;;;;;;;;;;21.80;29.20;;;;;;5086467;28;20023;-63
2022/01/20 05:38:21;;;;;;;;;;;21.80;29.20;;;;;;5086899;28;20094;-63
2022/01/20 05:40:48;;;;;;;;;;;21.80;29.20;;;;;;5094209;28;19959;-62
2022/01/20 05:43:15;;;;;;;;;;;21.80;29.20;;;;;;5083868;28;20373;-63
2022/01/20 05:45:42;;;;;;;;;;;21.80;29.20;;;;;;5085396;28;19974;-63
2022/01/20 05:48:13;;;;;;;;;;;21.80;29.60;;;;;;5068411;28;19920;-62
2022/01/20 05:50:40;;;;;;;;;;;21.80;29.20;;;;;;5084440;28;19920;-63
2022/01/20 05:53:07;;;;;;;;;;;21.80;29.20;;;;;;5083923;28;20025;-63
2022/01/20 05:55:35;;;;;;;;;;;21.80;29.20;;;;;;5083260;28;19920;-63
2022/01/20 05:58:03;;;;;;;;;;;21.80;29.20;;;;;;5084574;28;20214;-66
2022/01/20 06:00:30;;;;;;;;;;;21.80;29.20;;;;;;5083824;28;19959;-63
2022/01/20 06:05:44;;;;;;;;;;;21.80;29.20;;;;;;5085721;28;19920;-63
2022/01/20 06:08:13;;;;;;;;;;;21.80;29.20;;;;;;5084132;28;20319;-63
2022/01/20 06:10:40;;;;;;;;;;;21.70;29.10;;;;;;5085239;28;19971;-62
2022/01/20 06:13:07;;;;;;;;;;;21.80;29.00;;;;;;5086034;28;19978;-63
2022/01/20 06:15:34;;;;;;;;;;;21.70;29.00;;;;;;5082577;28;20381;-62
2022/01/20 06:18:01;;;;;;;;;;;21.70;28.90;;;;;;5082740;28;19982;-67
2022/01/20 06:20:29;;;;;;;;;;;21.70;28.90;;;;;;5082613;28;19955;-64
2022/01/20 06:22:56;;;;;;;;;;;21.70;29.00;;;;;;5083452;28;19928;-64
2022/01/20 06:25:23;;;;;;;;;;;21.70;29.00;;;;;;5085223;28;20511;-62
2022/01/20 06:27:50;;;;;;;;;;;21.70;28.90;;;;;;5086057;28;20345;-63
2022/01/20 06:30:17;;;;;;;;;;;21.70;28.90;;;;;;5080441;28;19924;-64
2022/01/20 06:32:45;;;;;;;;;;;21.80;28.90;;;;;;5082247;28;19946;-65
2022/01/20 06:35:12;;;;;;;;;;;21.80;28.90;;;;;;5079826;28;19920;-64
2022/01/20 06:37:39;;;;;;;;;;;21.90;28.90;;;;;;5086058;28;20006;-66
2022/01/20 06:40:07;;;;;;;;;;;21.90;28.70;;;;;;5078457;28;20027;-63
2022/01/20 06:42:35;;;;;;;;;;;22.00;28.70;;;;;;5077727;28;19928;-64
2022/01/20 06:45:04;;;;;;;;;;;22.00;28.80;;;;;;5081885;28;19955;-65
2022/01/20 06:47:31;;;;;;;;;;;22.10;29.00;;;;;;5078316;28;20393;-68
2022/01/20 06:49:59;;;;;;;;;;;22.10;29.30;;;;;;5085614;28;20387;-64
2022/01/20 06:52:27;;;;;;;;;;;22.20;29.50;;;;;;5081589;28;19924;-65
2022/01/20 06:54:54;;;;;;;;;;;22.20;29.50;;;;;;5086732;28;19970;-66
2022/01/20 06:57:26;;;;;;;;;;;22.30;29.40;;;;;;5064057;28;19928;-64
2022/01/20 06:59:53;;;;;;;;;;;22.30;29.30;;;;;;5090554;28;19920;-64
2022/01/20 07:02:20;;;;;;;;;;;22.40;29.00;;;;;;5108431;28;19919;-63
2022/01/20 07:04:47;;;;;;;;;;;22.50;29.10;;;;;;5106654;28;20299;-64
2022/01/20 07:07:14;;;;;;;;;;;22.50;29.30;;;;;;5083919;28;19955;-62
2022/01/20 07:09:42;;;;;;;;;;;22.60;29.10;;;;;;5088291;28;19924;-63
2022/01/20 07:12:10;;;;;;;;;;;22.70;29.40;;;;;;5088857;28;19927;-63
2022/01/20 07:14:37;;;;;;;;;;;22.70;29.30;;;;;;5088838;28;20011;-64
2022/01/20 07:17:04;;;;;;;;;;;22.80;29.30;;;;;;5078783;28;19920;-64
2022/01/20 07:19:32;;;;;;;;;;;22.90;29.10;;;;;;5086332;28;19977;-62
2022/01/20 07:21:59;;;;;;;;;;;22.90;28.80;;;;;;5087371;28;20393;-65
2022/01/20 07:24:27;;;;;;;;;;;23.00;28.60;;;;;;5088595;28;19981;-63
2022/01/20 07:26:54;;;;;;;;;;;23.10;28.50;;;;;;5085805;28;19963;-64
2022/01/20 07:29:21;;;;;;;;;;;23.10;28.40;;;;;;5086456;28;19950;-64
2022/01/20 07:31:48;;;;;;;;;;;23.20;28.50;;;;;;5091355;28;19920;-63
2022/01/20 07:34:15;;;;;;;;;;;23.30;28.60;;;;;;5091353;28;19930;-64
2022/01/20 07:36:42;;;;;;;;;;;23.30;28.50;;;;;;5090740;28;19959;-68
2022/01/20 07:39:09;;;;;;;;;;;23.30;28.50;;;;;;5073517;28;19985;-63
2022/01/20 07:41:36;;;;;;;;;;;23.30;28.50;;;;;;5092132;28;19963;-65
2022/01/20 07:44:03;;;;;;;;;;;23.30;28.70;;;;;;5092321;28;20360;-66
2022/01/20 07:46:30;;;;;;;;;;;23.40;28.90;;;;;;5091185;28;20263;-67
2022/01/20 07:48:57;;;;;;;;;;;23.40;29.20;;;;;;5088062;28;20365;-65
2022/01/20 07:51:24;;;;;;;;;;;23.40;29.30;;;;;;5092437;28;19959;-66
2022/01/20 07:53:51;;;;;;;;;;;23.50;29.20;;;;;;5090603;28;19942;-64
2022/01/20 07:56:18;;;;;;;;;;;23.50;29.20;;;;;;5090516;28;19923;-66
2022/01/20 07:58:45;;;;;;;;;;;23.50;29.10;;;;;;5091442;28;20059;-66
2022/01/20 08:01:12;;;;;;;;;;;23.50;29.10;;;;;;5074167;28;19920;-66
2022/01/20 08:03:39;;;;;;;;;;;23.60;29.10;;;;;;5091315;28;19965;-66
2022/01/20 08:06:06;;;;;;;;;;;23.60;29.00;;;;;;5090737;28;19920;-65
2022/01/20 08:08:33;;;;;;;;;;;23.70;29.00;;;;;;5090605;28;20300;-65
2022/01/20 08:11:00;;;;;;;;;;;23.70;29.10;;;;;;5088251;28;19931;-66
2022/01/20 08:13:27;;;;;;;;;;;23.70;29.10;;;;;;5087645;28;20015;-63
2022/01/20 08:18:40;;;;;;;;;;;23.80;29.00;;;;;;5087804;28;20432;-65
2022/01/20 08:21:07;;;;;;;;;;;23.80;29.00;;;;;;5085225;28;19924;-64
2022/01/20 08:23:34;;;;;;;;;;;23.80;29.10;;;;;;5088006;28;19989;-63
2022/01/20 08:26:02;;;;;;;;;;;23.80;29.00;;;;;;5091348;28;19971;-64
2022/01/20 08:31:51;;;;;;;;;;;23.90;29.20;;;;;;5087803;28;19967;-63
2022/01/20 08:34:18;;;;;;;;;;;23.90;29.20;;;;;;5070686;28;20325;-65
2022/01/20 08:36:46;;;;;;;;;;;23.90;29.20;;;;;;5090226;28;19971;-63
2022/01/20 08:42:02;;;;;;;;;;;23.90;29.10;;;;;;5089203;28;19920;-64
2022/01/20 08:44:29;;;;;;;;;;;23.90;29.00;;;;;;5085403;28;19984;-65
2022/01/20 08:46:58;;;;;;;;;;;23.90;29.00;;;;;;5086997;28;19985;-63
2022/01/20 08:49:26;;;;;;;;;;;23.90;29.00;;;;;;5083986;28;20006;-63
2022/01/20 08:51:53;;;;;;;;;;;23.90;28.90;;;;;;5087658;28;20001;-64
2022/01/20 08:54:20;;;;;;;;;;;23.90;28.80;;;;;;5081925;28;20596;-66
2022/01/20 08:56:49;;;;;;;;;;;23.90;28.80;;;;;;5082748;28;20368;-64
2022/01/20 08:59:16;;;;;;;;;;;23.90;28.80;;;;;;5085502;28;19961;-65
2022/01/20 09:01:44;;;;;;;;;;;23.90;28.90;;;;;;5084701;28;19928;-64
2022/01/20 09:04:13;;;;;;;;;;;23.90;29.00;;;;;;5089159;28;19920;-65
2022/01/20 09:06:40;;;;;;;;;;;23.90;28.90;;;;;;5090730;28;19924;-66
2022/01/20 09:09:07;;;;;;;;;;;23.90;28.90;;;;;;5085494;28;19969;-66
2022/01/20 09:11:49;;;;;;;;;;;24.00;28.90;;;;;;5082817;28;19919;-65
2022/01/20 09:17:03;;;;;;;;;;;23.90;28.80;;;;;;5091526;28;19955;-64
2022/01/20 09:19:30;;;;;;;;;;;24.00;28.60;;;;;;5099175;28;19919;-63
2022/01/20 09:21:57;;;;;;;;;;;24.00;28.50;;;;;;5082440;28;19924;-65
2022/01/20 09:24:26;;;;;;;;;;;24.00;28.60;;;;;;5065508;28;20054;-64
2022/01/20 09:26:53;;;;;;;;;;;24.00;29.00;;;;;;5077241;28;19928;-66
2022/01/20 09:29:20;;;;;;;;;;;24.10;28.60;;;;;;5096491;28;19976;-63
2022/01/20 09:31:50;;;;;;;;;;;24.10;28.60;;;;;;5080498;28;20032;-65
2022/01/20 09:34:17;;;;;;;;;;;24.10;28.70;;;;;;5087169;28;20026;-63
2022/01/20 09:36:45;;;;;;;;;;;24.10;28.70;;;;;;5071648;28;20436;-63
2022/01/20 09:39:13;;;;;;;;;;;24.10;28.70;;;;;;5089938;28;19967;-63
2022/01/20 09:41:42;;;;;;;;;;;24.20;28.80;;;;;;5082917;28;19928;-64
2022/01/20 09:44:09;;;;;;;;;;;24.20;28.70;;;;;;5085367;28;19927;-65
2022/01/20 09:46:37;;;;;;;;;;;24.30;28.80;;;;;;5088705;28;20299;-65
2022/01/20 09:49:04;;;;;;;;;;;24.40;29.00;;;;;;5089472;28;19988;-65
2022/01/20 09:51:31;;;;;;;;;;;24.40;29.00;;;;;;5083770;28;19975;-65
2022/01/20 09:53:58;;;;;;;;;;;24.40;29.00;;;;;;5099917;28;20031;-65
2022/01/20 09:56:25;;;;;;;;;;;24.50;29.00;;;;;;5088934;28;19975;-64
2022/01/20 09:58:52;;;;;;;;;;;24.50;29.10;;;;;;5087926;28;19920;-65
2022/01/20 10:01:36;;;;;;;;;;;24.50;29.00;;;;;;5086675;28;20226;-65
2022/01/20 10:04:04;;;;;;;;;;;24.50;29.00;;;;;;5088273;28;19927;-66
2022/01/20 10:06:31;;;;;;;;;;;24.60;28.90;;;;;;5089185;28;19988;-64
2022/01/20 10:08:59;;;;;;;;;;;24.60;28.80;;;;;;5089205;28;20060;-64
2022/01/20 10:11:45;;;;;;;;;;;24.60;28.70;;;;;;5084932;28;20009;-65
2022/01/20 10:14:11;;;;;;;;;;;24.60;28.50;;;;;;5086628;28;19920;-64
2022/01/20 10:16:38;;;;;;;;;;;24.60;28.40;;;;;;5088017;28;19924;-64
2022/01/20 10:19:06;;;;;;;;;;;24.60;28.30;;;;;;5088608;28;19988;-63
2022/01/20 10:21:35;;;;;;;;;;;24.70;28.40;;;;;;5084763;28;20389;-63
2022/01/20 10:24:07;;;;;;;;;;;24.70;28.40;;;;;;5087410;28;20011;-70
2022/01/20 10:26:34;;;;;;;;;;;24.70;28.40;;;;;;5089495;28;19969;-67
2022/01/20 10:29:05;;;;;;;;;;;24.80;28.70;;;;;;5089178;28;20306;-66
2022/01/20 10:31:34;;;;;;;;;;;24.80;28.70;;;;;;5084122;28;20145;-67
2022/01/20 10:34:02;;;;;;;;;;;24.80;28.70;;;;;;5087749;28;20003;-66
2022/01/20 10:36:29;;;;;;;;;;;24.80;28.70;;;;;;5089046;28;19971;-65
2022/01/20 10:38:57;;;;;;;;;;;24.90;28.70;;;;;;5088099;28;20498;-67
2022/01/20 10:41:32;;;;;;;;;;;24.90;28.70;;;;;;5084908;28;19920;-67
2022/01/20 10:44:07;;;;;;;;;;;24.90;28.80;;;;;;5085893;28;19963;-64
2022/01/20 10:46:41;;;;;;;;;;;24.90;28.60;;;;;;5071512;28;19920;-68
2022/01/20 10:49:09;;;;;;;;;;;24.90;28.50;;;;;;5088690;28;19920;-65
2022/01/20 10:51:36;;;;;;;;;;;25.00;28.40;;;;;;5089587;28;19927;-68
2022/01/20 10:54:05;;;;;;;;;;;25.00;28.40;;;;;;5089683;28;19974;-70
2022/01/20 10:56:45;;;;;;;;;;;25.00;28.30;;;;;;5089460;28;19924;-67
2022/01/20 10:59:12;;;;;;;;;;;25.00;28.30;;;;;;5087811;28;19924;-68
2022/01/20 11:01:39;;;;;;;;;;;25.00;28.20;;;;;;5087017;28;20007;-67
2022/01/20 11:04:07;;;;;;;;;;;25.00;28.10;;;;;;5088707;28;19963;-68
2022/01/20 11:06:36;;;;;;;;;;;25.00;28.00;;;;;;5089491;28;19988;-67
2022/01/20 11:09:06;;;;;;;;;;;25.00;28.00;;;;;;5089182;28;20434;-67
2022/01/20 11:11:36;;;;;;;;;;;25.00;28.00;;;;;;5090011;28;19920;-66
2022/01/20 11:14:03;;;;;;;;;;;25.00;27.90;;;;;;5089455;28;19924;-67
2022/01/20 11:16:36;;;;;;;;;;;25.00;27.80;;;;;;5089207;28;19955;-67
2022/01/20 11:19:13;;;;;;;;;;;25.00;27.80;;;;;;5091604;28;19959;-67
2022/01/20 11:21:42;;;;;;;;;;;25.00;27.70;;;;;;5089497;28;19981;-67
2022/01/20 11:24:20;;;;;;;;;;;25.00;27.60;;;;;;5090910;28;20258;-66
2022/01/20 11:26:52;;;;;;;;;;;25.00;27.50;;;;;;5087656;28;19962;-69
2022/01/20 11:29:20;;;;;;;;;;;25.00;27.40;;;;;;5091525;28;19920;-69
2022/01/20 11:31:49;;;;;;;;;;;25.00;27.40;;;;;;5090434;28;19920;-68
2022/01/20 11:34:36;;;;;;;;;;;25.00;27.30;;;;;;5089647;28;20454;-66
2022/01/20 11:37:08;;;;;;;;;;;25.00;27.20;;;;;;5087688;28;20031;-65
2022/01/20 11:39:47;;;;;;;;;;;25.00;27.30;;;;;;5092391;28;19920;-64
2022/01/20 11:42:22;;;;;;;;;;;25.00;27.50;;;;;;5088629;28;20003;-64
2022/01/20 11:44:49;;;;;;;;;;;25.00;27.40;;;;;;5104069;28;19999;-66
2022/01/20 11:47:17;;;;;;;;;;;25.00;27.50;;;;;;5087275;28;19959;-65
2022/01/20 11:49:45;;;;;;;;;;;25.00;27.60;;;;;;5072704;28;19920;-68
2022/01/20 11:52:27;;;;;;;;;;;25.00;27.50;;;;;;5086909;28;20018;-64
2022/01/20 11:55:15;;;;;;;;;;;25.00;27.50;;;;;;5075538;28;19920;-67
2022/01/20 11:57:43;;;;;;;;;;;25.00;27.60;;;;;;5085419;28;19963;-68
2022/01/20 12:00:19;;;;;;;;;;;25.00;27.60;;;;;;5092397;28;19920;-67
2022/01/20 12:06:25;;;;;;;;;;;25.00;27.50;;;;;;5086040;28;19965;-66
2022/01/20 12:08:54;;;;;;;;;;;25.00;27.50;;;;;;5089548;28;20293;-65
2022/01/20 12:11:32;;;;;;;;;;;25.00;27.50;;;;;;5090603;28;20111;-66
2022/01/20 12:13:59;;;;;;;;;;;25.00;28.00;;;;;;5088579;28;19920;-67
2022/01/20 12:16:27;;;;;;;;;;;25.10;27.50;;;;;;5082728;28;19959;-68
2022/01/20 12:18:55;;;;;;;;;;;25.10;27.50;;;;;;5094767;28;20516;-67
2022/01/20 12:21:23;;;;;;;;;;;25.10;27.50;;;;;;5090940;28;19924;-68
2022/01/20 12:23:51;;;;;;;;;;;25.10;27.60;;;;;;5091873;28;19920;-66
2022/01/20 12:26:18;;;;;;;;;;;25.10;27.60;;;;;;5087997;28;20034;-66
2022/01/20 12:28:45;;;;;;;;;;;25.10;27.60;;;;;;5069664;28;20237;-66
2022/01/20 12:31:14;;;;;;;;;;;25.10;27.50;;;;;;5090319;28;20342;-67
2022/01/20 12:33:45;;;;;;;;;;;25.20;27.50;;;;;;5091066;28;19959;-65
2022/01/20 12:36:13;;;;;;;;;;;25.20;27.30;;;;;;5086013;28;19920;-64
2022/01/20 12:38:41;;;;;;;;;;;25.20;27.20;;;;;;5087752;28;19962;-64
2022/01/20 12:41:22;;;;;;;;;;;25.20;27.10;;;;;;5091032;28;20426;-64
2022/01/20 12:43:56;;;;;;;;;;;25.20;27.10;;;;;;5089130;28;19990;-68
2022/01/20 12:46:24;;;;;;;;;;;25.20;27.10;;;;;;5087727;28;19939;-66
2022/01/20 12:48:56;;;;;;;;;;;25.20;27.00;;;;;;5087854;28;19981;-67
2022/01/20 12:51:38;;;;;;;;;;;25.20;27.00;;;;;;5106206;28;19963;-69
2022/01/20 12:54:08;;;;;;;;;;;25.20;26.90;;;;;;5090796;28;19955;-65
2022/01/20 12:56:36;;;;;;;;;;;25.20;27.00;;;;;;5090433;28;20400;-64
2022/01/20 12:59:04;;;;;;;;;;;25.20;27.20;;;;;;5087315;28;20289;-65
2022/01/20 13:01:51;;;;;;;;;;;25.20;27.30;;;;;;5089106;28;19920;-64
2022/01/20 13:04:24;;;;;;;;;;;25.20;27.40;;;;;;5089501;28;19924;-65
2022/01/20 13:06:55;;;;;;;;;;;25.20;27.40;;;;;;5090750;28;19942;-64
2022/01/20 13:09:25;;;;;;;;;;;25.20;27.80;;;;;;5087022;28;19966;-65
2022/01/20 13:11:57;;;;;;;;;;;25.20;27.30;;;;;;5085396;28;19924;-64
2022/01/20 13:14:35;;;;;;;;;;;25.20;27.30;;;;;;5086981;28;19955;-63
2022/01/20 13:17:04;;;;;;;;;;;25.20;27.30;;;;;;5082916;28;20419;-64
2022/01/20 13:19:31;;;;;;;;;;;25.20;27.40;;;;;;5086505;28;19977;-64
2022/01/20 13:22:00;;;;;;;;;;;25.10;27.30;;;;;;5082681;28;19928;-65
2022/01/20 13:24:28;;;;;;;;;;;25.20;27.40;;;;;;5103599;27;19931;-65
2022/01/20 13:26:56;;;;;;;;;;;25.10;27.40;;;;;;5088508;28;20429;-64
2022/01/20 13:29:24;;;;;;;;;;;25.10;27.50;;;;;;5083178;28;19924;-71
2022/01/20 13:31:54;;;;;;;;;;;25.10;27.70;;;;;;5081438;28;20002;-66
2022/01/20 13:34:21;;;;;;;;;;;25.10;27.90;;;;;;5086289;28;20348;-66
2022/01/20 13:36:54;;;;;;;;;;;25.10;28.00;;;;;;5085945;28;19938;-66
2022/01/20 13:39:35;;;;;;;;;;;25.10;27.90;;;;;;5084737;28;19957;-68
2022/01/20 13:42:23;;;;;;;;;;;25.10;27.80;;;;;;5085063;28;19927;-66
2022/01/20 13:45:12;;;;;;;;;;;25.10;27.70;;;;;;5076988;28;19966;-66
2022/01/20 13:48:12;;;;;;;;;;;25.00;27.60;;;;;;5082260;28;20327;-69
2022/01/20 13:50:44;;;;;;;;;;;24.90;27.60;;;;;;5085545;28;19959;-66
2022/01/20 13:53:13;;;;;;;;;;;24.90;27.50;;;;;;5083852;28;19931;-68
2022/01/20 13:55:40;;;;;;;;;;;24.90;27.50;;;;;;5083374;28;19927;-66
2022/01/20 13:58:07;;;;;;;;;;;24.90;27.50;;;;;;5085822;28;20010;-65
2022/01/20 14:00:38;;;;;;;;;;;24.90;27.60;;;;;;5081761;28;19928;-67
2022/01/20 14:03:06;;;;;;;;;;;24.80;27.60;;;;;;5067138;28;19930;-72
2022/01/20 14:05:34;;;;;;;;;;;24.80;27.80;;;;;;5069474;28;19924;-70
2022/01/20 14:08:02;;;;;;;;;;;24.80;28.20;;;;;;5086088;28;19920;-74
2022/01/20 14:10:30;;;;;;;;;;;24.80;28.50;;;;;;5089139;28;19923;-72
2022/01/20 14:12:57;;;;;;;;;;;24.80;28.60;;;;;;5072277;28;20064;-71
2022/01/20 14:15:25;;;;;;;;;;;24.70;28.80;;;;;;5111471;28;20334;-69
2022/01/20 14:17:54;;;;;;;;;;;24.70;28.90;;;;;;5095141;28;20010;-70
2022/01/20 14:20:23;;;;;;;;;;;24.70;29.10;;;;;;5085190;28;20025;-66
2022/01/20 14:27:08;;;;;;;;;;;24.80;29.20;;;;;;5087424;28;19958;-73
2022/01/20 14:29:36;;;;;;;;;;;24.70;29.10;;;;;;5085540;28;19996;-67
2022/01/20 14:32:03;;;;;;;;;;;24.70;29.10;;;;;;5083382;28;19928;-69
2022/01/20 14:34:30;;;;;;;;;;;24.70;29.10;;;;;;5088639;28;19959;-69
2022/01/20 14:36:57;;;;;;;;;;;24.70;29.00;;;;;;5088657;28;19920;-70
2022/01/20 14:39:24;;;;;;;;;;;24.70;28.90;;;;;;5089946;28;19959;-68
2022/01/20 14:41:51;;;;;;;;;;;24.70;28.90;;;;;;5067912;28;19924;-66
2022/01/20 14:44:18;;;;;;;;;;;24.70;29.10;;;;;;5092190;28;20003;-70
2022/01/20 14:46:46;;;;;;;;;;;24.70;29.10;;;;;;5092139;28;19975;-66
2022/01/20 14:49:13;;;;;;;;;;;24.70;29.40;;;;;;5093552;28;19930;-70
2022/01/20 14:51:40;;;;;;;;;;;24.70;29.60;;;;;;5091832;28;19952;-75
2022/01/20 14:54:07;;;;;;;;;;;24.80;29.50;;;;;;5091183;28;19920;-69
2022/01/20 14:56:34;;;;;;;;;;;24.80;29.40;;;;;;5104644;28;19923;-69
2022/01/20 14:59:01;;;;;;;;;;;24.80;29.40;;;;;;5094313;28;19959;-70
2022/01/20 15:01:28;;;;;;;;;;;24.80;29.40;;;;;;5091432;28;19928;-76
2022/01/20 15:03:56;;;;;;;;;;;24.80;29.30;;;;;;5104080;28;20003;-75
2022/01/20 15:06:23;;;;;;;;;;;24.80;29.40;;;;;;5114126;28;19959;-68
2022/01/20 15:08:50;;;;;;;;;;;24.80;29.40;;;;;;5115481;28;20002;-72
2022/01/20 15:11:17;;;;;;;;;;;24.80;29.40;;;;;;5113729;28;20282;-72
2022/01/20 15:13:44;;;;;;;;;;;24.80;29.30;;;;;;5095176;28;19971;-75
2022/01/20 15:16:11;;;;;;;;;;;24.80;29.30;;;;;;5095086;28;19978;-72
2022/01/20 15:18:40;;;;;;;;;;;24.80;29.30;;;;;;5093540;28;19927;-69
2022/01/20 15:21:07;;;;;;;;;;;24.80;29.30;;;;;;5094029;28;19920;-68
2022/01/20 15:23:34;;;;;;;;;;;24.80;29.20;;;;;;5088641;28;19920;-72
2022/01/20 15:26:02;;;;;;;;;;;24.80;29.20;;;;;;5086768;28;19920;-72
2022/01/20 15:28:30;;;;;;;;;;;24.70;29.10;;;;;;5086929;28;19920;-73
2022/01/20 15:30:58;;;;;;;;;;;24.70;28.90;;;;;;5085140;28;19974;-71
2022/01/20 15:33:26;;;;;;;;;;;24.70;28.80;;;;;;5087173;28;19920;-72
2022/01/20 15:35:53;;;;;;;;;;;24.70;28.80;;;;;;5089511;28;19942;-70
2022/01/20 15:38:21;;;;;;;;;;;24.70;28.80;;;;;;5089666;28;19920;-71
2022/01/20 15:40:48;;;;;;;;;;;24.70;28.80;;;;;;5091391;28;20084;-71
2022/01/20 15:43:15;;;;;;;;;;;24.70;28.60;;;;;;5091221;28;19968;-70
2022/01/20 15:45:42;;;;;;;;;;;24.60;28.50;;;;;;5096037;28;19928;-71
2022/01/20 15:48:09;;;;;;;;;;;24.60;28.50;;;;;;5097306;28;19973;-71